Time;durP1;ratioP1;P1;durP2;ratioP2;P2;SDS_P1;SDS_P2;PMS_P1;PMS_P2;Temp;Humidity;BMP_temperature;BMP_pressure;BME280_temperature;BME280_humidity;BME280_pressure;Samples;Min_cycle;Max_cycle;Signal;HPM_P1;HPM_P2
2022/10/23 00:01:39;;;;;;;6.73;3.20;;;16.10;99.90;;;;;;5050519;28;20211;-32
2022/10/23 00:04:15;;;;;;;7.23;3.00;;;16.00;99.90;;;;;;5051752;28;20683;-33
2022/10/23 00:06:43;;;;;;;6.30;3.17;;;16.00;99.90;;;;;;5051570;28;20200;-32
2022/10/23 00:09:12;;;;;;;9.87;3.60;;;16.00;99.90;;;;;;5051563;28;20504;-32
2022/10/23 00:11:43;;;;;;;5.53;2.97;;;16.00;99.90;;;;;;5050170;28;20661;-32
2022/10/23 00:14:10;;;;;;;5.57;2.63;;;16.00;99.90;;;;;;5051238;28;20205;-32
2022/10/23 00:16:38;;;;;;;7.13;2.97;;;15.90;99.90;;;;;;5051726;28;20232;-31
2022/10/23 00:19:06;;;;;;;5.37;2.87;;;15.90;99.90;;;;;;5051097;28;20236;-33
2022/10/23 00:21:33;;;;;;;3.73;2.63;;;15.90;99.90;;;;;;5051285;28;20622;-31
2022/10/23 00:24:01;;;;;;;5.13;2.97;;;15.90;99.90;;;;;;5051146;28;21047;-33
2022/10/23 00:26:30;;;;;;;4.37;3.17;;;15.90;99.90;;;;;;5051220;28;20216;-33
2022/10/23 00:28:57;;;;;;;5.70;3.20;;;15.90;99.90;;;;;;5051029;28;20227;-32
2022/10/23 00:31:25;;;;;;;6.20;3.23;;;15.90;99.90;;;;;;5051150;28;20220;-33
2022/10/23 00:33:52;;;;;;;4.73;3.00;;;15.80;99.90;;;;;;5051599;28;20192;-32
2022/10/23 00:36:20;;;;;;;5.17;2.90;;;15.80;99.90;;;;;;5051285;28;20200;-32
2022/10/23 00:38:48;;;;;;;6.13;2.97;;;15.80;99.90;;;;;;5051338;28;20687;-32
2022/10/23 00:41:19;;;;;;;5.23;3.17;;;15.80;99.90;;;;;;5051070;28;20223;-33
2022/10/23 00:44:06;;;;;;;6.17;2.90;;;15.80;99.90;;;;;;5051176;28;20262;-32
2022/10/23 00:46:38;;;;;;;3.83;2.40;;;15.80;99.90;;;;;;5050368;28;20200;-31
2022/10/23 00:49:06;;;;;;;5.23;2.73;;;15.80;99.90;;;;;;5050635;28;20196;-32
2022/10/23 00:51:44;;;;;;;7.53;2.97;;;15.80;99.90;;;;;;5050645;28;20243;-31
2022/10/23 00:54:15;;;;;;;7.53;2.57;;;15.80;99.90;;;;;;5050892;28;20203;-33
2022/10/23 00:56:58;;;;;;;5.20;2.70;;;15.80;99.90;;;;;;5050910;28;20200;-32
2022/10/23 00:59:25;;;;;;;6.40;2.53;;;15.80;99.90;;;;;;5048150;28;20208;-31
2022/10/23 01:01:53;;;;;;;3.73;2.20;;;15.80;99.90;;;;;;5050584;28;20204;-32
2022/10/23 01:04:21;;;;;;;5.37;2.43;;;15.80;99.90;;;;;;5050281;28;20204;-33
2022/10/23 01:07:07;;;;;;;4.83;2.20;;;15.80;99.90;;;;;;5050618;28;20208;-32
2022/10/23 01:10:03;;;;;;;4.83;2.47;;;15.80;99.90;;;;;;5050370;28;20729;-33
2022/10/23 01:12:45;;;;;;;4.53;2.20;;;15.80;99.90;;;;;;5050420;28;20235;-32
2022/10/23 01:15:25;;;;;;;5.67;2.57;;;15.80;99.90;;;;;;5050767;28;20210;-31
2022/10/23 01:18:11;;;;;;;5.03;2.10;;;15.80;99.90;;;;;;5048910;28;20210;-33
2022/10/23 01:20:44;;;;;;;7.37;2.43;;;15.80;99.90;;;;;;5050251;28;20208;-31
2022/10/23 01:23:30;;;;;;;3.87;2.13;;;15.80;99.90;;;;;;5050567;28;20204;-33
2022/10/23 01:26:17;;;;;;;3.23;2.23;;;15.90;99.90;;;;;;5049913;28;20307;-32
2022/10/23 01:28:54;;;;;;;6.27;2.27;;;15.90;99.90;;;;;;5049716;28;20199;-32
2022/10/23 01:31:36;;;;;;;4.83;2.10;;;15.90;99.90;;;;;;5048749;28;20206;-31
2022/10/23 01:34:11;;;;;;;3.83;2.27;;;15.90;99.90;;;;;;5049753;28;20208;-33
2022/10/23 01:36:42;;;;;;;3.43;2.20;;;15.90;99.90;;;;;;5050123;28;20192;-32
2022/10/23 01:39:19;;;;;;;4.23;2.30;;;15.90;99.90;;;;;;5049969;28;20180;-32
2022/10/23 01:41:53;;;;;;;3.13;2.10;;;16.00;99.90;;;;;;5050123;28;20196;-33
2022/10/23 01:45:12;;;;;;;3.67;2.30;;;16.00;99.90;;;;;;5049785;28;20613;-32
2022/10/23 01:47:42;;;;;;;3.73;2.40;;;16.00;99.90;;;;;;5048192;28;20204;-31
2022/10/23 01:50:13;;;;;;;3.73;1.90;;;16.00;99.90;;;;;;5049414;28;20734;-31
2022/10/23 01:52:40;;;;;;;5.53;2.63;;;16.00;99.90;;;;;;5065079;28;20210;-31
2022/10/23 01:55:10;;;;;;;3.00;1.90;;;16.00;99.90;;;;;;5049742;28;20197;-32
2022/10/23 01:57:39;;;;;;;4.93;2.30;;;16.00;99.90;;;;;;5049412;28;20204;-31
2022/10/23 02:00:13;;;;;;;6.87;2.17;;;16.00;99.90;;;;;;5064259;28;20254;-30
2022/10/23 02:02:46;;;;;;;5.40;2.07;;;16.00;99.90;;;;;;5049504;28;20192;-30
2022/10/23 02:05:27;;;;;;;3.43;2.07;;;16.00;99.90;;;;;;5049435;28;20181;-30
2022/10/23 02:07:55;;;;;;;8.83;2.40;;;16.00;99.90;;;;;;5047930;28;20231;-30
2022/10/23 02:10:31;;;;;;;4.40;1.67;;;16.00;99.90;;;;;;5049041;28;20211;-30
2022/10/23 02:13:08;;;;;;;6.63;2.00;;;16.00;99.90;;;;;;5049584;28;20192;-31
2022/10/23 02:15:40;;;;;;;6.93;2.27;;;16.00;99.90;;;;;;5049508;28;20191;-31
2022/10/23 02:18:36;;;;;;;5.73;2.10;;;16.00;99.90;;;;;;5049301;28;20347;-31
2022/10/23 02:21:11;;;;;;;4.07;2.40;;;16.00;99.90;;;;;;5142974;27;20570;-34
2022/10/23 02:23:45;;;;;;;4.17;2.17;;;16.00;99.90;;;;;;5125835;28;20247;-35
2022/10/23 02:26:24;;;;;;;4.97;2.17;;;16.00;99.90;;;;;;5126826;28;20702;-34
2022/10/23 02:28:58;;;;;;;4.37;1.90;;;16.00;99.90;;;;;;5126719;28;20237;-34
2022/10/23 02:31:26;;;;;;;3.13;1.80;;;16.00;99.90;;;;;;5125543;28;20209;-34
2022/10/23 02:33:53;;;;;;;5.33;1.83;;;16.00;99.90;;;;;;5126567;28;20219;-34
2022/10/23 02:36:23;;;;;;;6.07;2.00;;;16.00;99.90;;;;;;5127098;27;20522;-34
2022/10/23 02:38:50;;;;;;;3.00;1.73;;;16.00;99.90;;;;;;5126702;27;20197;-34
2022/10/23 02:41:51;;;;;;;6.37;2.03;;;16.10;99.90;;;;;;5126397;27;20577;-34
2022/10/23 02:44:26;;;;;;;2.63;1.80;;;16.10;99.90;;;;;;5126474;28;20280;-34
2022/10/23 02:47:18;;;;;;;4.23;1.80;;;16.10;99.90;;;;;;5126526;28;20193;-34
2022/10/23 02:50:03;;;;;;;4.97;2.10;;;16.10;99.90;;;;;;5124872;28;20225;-34
2022/10/23 02:52:49;;;;;;;3.63;1.97;;;16.10;99.90;;;;;;5126633;28;20687;-33
2022/10/23 02:55:27;;;;;;;3.23;1.80;;;16.10;99.90;;;;;;5126225;27;20602;-33
2022/10/23 02:58:07;;;;;;;5.93;2.10;;;16.10;99.90;;;;;;5124601;28;20201;-34
2022/10/23 03:00:37;;;;;;;4.70;1.70;;;16.10;99.90;;;;;;5126067;27;20209;-34
2022/10/23 03:03:14;;;;;;;3.70;1.93;;;16.10;99.90;;;;;;5124739;28;20205;-34
2022/10/23 03:05:43;;;;;;;9.77;2.27;;;16.10;99.90;;;;;;5124696;28;20194;-34
2022/10/23 03:08:12;;;;;;;5.13;2.03;;;16.10;99.90;;;;;;5126010;28;20205;-34
2022/10/23 03:10:41;;;;;;;2.73;2.00;;;16.10;99.90;;;;;;5126058;28;20244;-34
2022/10/23 03:13:09;;;;;;;2.60;1.90;;;16.10;99.90;;;;;;5125707;28;20296;-34
2022/10/23 03:15:37;;;;;;;9.40;2.10;;;16.20;99.90;;;;;;5125607;28;20254;-33
2022/10/23 03:18:04;;;;;;;8.90;2.20;;;16.20;99.90;;;;;;5125831;27;20197;-34
2022/10/23 03:20:31;;;;;;;2.60;1.87;;;16.20;99.90;;;;;;5125356;28;20226;-34
2022/10/23 03:22:59;;;;;;;4.50;1.90;;;16.20;99.90;;;;;;5125612;28;20699;-34
2022/10/23 03:25:29;;;;;;;4.87;2.20;;;16.20;99.90;;;;;;5125435;28;20212;-33
2022/10/23 03:27:56;;;;;;;5.43;2.37;;;16.20;99.90;;;;;;5125604;28;20208;-33
2022/10/23 03:30:25;;;;;;;3.87;1.93;;;16.20;99.90;;;;;;5124475;27;20213;-33
2022/10/23 03:32:53;;;;;;;5.00;2.17;;;16.20;99.90;;;;;;5111708;28;20205;-33
2022/10/23 03:35:20;;;;;;;3.83;1.70;;;16.20;99.90;;;;;;5111899;28;20205;-33
2022/10/23 03:37:47;;;;;;;3.83;1.93;;;16.20;99.90;;;;;;5111467;28;20206;-34
2022/10/23 03:40:14;;;;;;;4.40;1.73;;;16.20;99.90;;;;;;5111736;28;20692;-33
2022/10/23 03:42:41;;;;;;;4.23;1.67;;;16.20;99.90;;;;;;5111581;28;20217;-34
2022/10/23 03:45:09;;;;;;;3.50;1.90;;;16.20;99.90;;;;;;5111343;28;20605;-34
2022/10/23 03:47:39;;;;;;;3.17;1.73;;;16.20;99.90;;;;;;5111359;28;20198;-34
2022/10/23 03:50:08;;;;;;;4.13;1.93;;;16.20;99.90;;;;;;5111272;28;20267;-33
2022/10/23 03:52:36;;;;;;;3.13;1.73;;;16.20;99.90;;;;;;5111093;28;20210;-33
2022/10/23 03:55:03;;;;;;;3.77;1.70;;;16.20;99.90;;;;;;5111236;28;20210;-34
2022/10/23 03:57:31;;;;;;;5.27;1.87;;;16.20;99.90;;;;;;5111622;28;20572;-33
2022/10/23 03:59:58;;;;;;;3.20;1.60;;;16.20;99.90;;;;;;5111365;28;20275;-33
2022/10/23 04:02:26;;;;;;;2.93;1.80;;;16.20;99.90;;;;;;5110984;28;20238;-34
2022/10/23 04:04:53;;;;;;;2.50;1.67;;;16.20;99.90;;;;;;5111049;28;20259;-33
2022/10/23 04:07:20;;;;;;;3.87;1.90;;;16.20;99.90;;;;;;5126637;27;20195;-33
2022/10/23 04:09:48;;;;;;;6.17;1.77;;;16.20;99.90;;;;;;5110943;28;20225;-33
2022/10/23 04:12:17;;;;;;;2.63;1.90;;;16.20;99.90;;;;;;5111450;28;20231;-33
2022/10/23 04:14:46;;;;;;;3.50;1.97;;;16.20;99.90;;;;;;5111621;28;20593;-33
2022/10/23 04:17:14;;;;;;;2.77;1.70;;;16.20;99.90;;;;;;5110941;28;20734;-33
2022/10/23 04:19:41;;;;;;;5.67;1.90;;;16.20;99.90;;;;;;5110476;28;20607;-33
2022/10/23 04:22:11;;;;;;;4.13;1.87;;;16.20;99.90;;;;;;5126556;27;20289;-33
2022/10/23 04:24:42;;;;;;;4.60;2.00;;;16.20;99.90;;;;;;5110954;28;20206;-33
2022/10/23 04:27:10;;;;;;;4.73;1.60;;;16.20;99.90;;;;;;5110936;28;20289;-35
2022/10/23 04:29:37;;;;;;;2.93;1.40;;;16.20;99.90;;;;;;5110520;28;20213;-33
2022/10/23 04:32:06;;;;;;;5.07;1.50;;;16.20;99.90;;;;;;5110660;28;20205;-33
2022/10/23 04:34:33;;;;;;;3.37;2.10;;;16.20;99.90;;;;;;5110594;28;20202;-33
2022/10/23 04:37:00;;;;;;;4.40;1.70;;;16.20;99.90;;;;;;5110491;28;20205;-33
2022/10/23 04:39:30;;;;;;;3.10;1.63;;;16.20;99.90;;;;;;5110529;28;20213;-33
2022/10/23 04:41:57;;;;;;;4.47;1.80;;;16.20;99.90;;;;;;5110276;28;20190;-33
2022/10/23 04:44:24;;;;;;;2.83;1.80;;;16.20;99.90;;;;;;5109632;28;20679;-33
2022/10/23 04:46:52;;;;;;;6.00;1.70;;;16.20;99.90;;;;;;5125988;27;20567;-33
2022/10/23 04:49:21;;;;;;;4.33;1.63;;;16.20;99.90;;;;;;5110152;28;20247;-33
2022/10/23 04:51:50;;;;;;;5.07;1.97;;;16.20;99.90;;;;;;5110198;28;20573;-33
2022/10/23 04:54:20;;;;;;;4.27;1.70;;;16.20;99.90;;;;;;5110105;28;20206;-33
2022/10/23 04:56:47;;;;;;;2.60;1.70;;;16.20;99.90;;;;;;5110131;28;20198;-33
2022/10/23 04:59:14;;;;;;;2.33;1.50;;;16.30;99.90;;;;;;5109924;28;20296;-33
2022/10/23 05:01:42;;;;;;;3.63;1.93;;;16.30;99.90;;;;;;5109905;28;20222;-33
2022/10/23 05:04:12;;;;;;;3.97;1.70;;;16.30;99.90;;;;;;5109862;28;20199;-33
2022/10/23 05:06:40;;;;;;;5.13;2.23;;;16.30;99.90;;;;;;5109739;28;20190;-33
2022/10/23 05:09:07;;;;;;;2.43;1.50;;;16.30;99.90;;;;;;5110135;28;20194;-33
2022/10/23 05:11:34;;;;;;;1.90;1.50;;;16.30;99.90;;;;;;5110266;28;20234;-33
2022/10/23 05:14:01;;;;;;;2.93;1.70;;;16.30;99.90;;;;;;5109925;28;20511;-33
2022/10/23 05:16:40;;;;;;;3.17;1.50;;;16.30;99.90;;;;;;5109602;28;20212;-33
2022/10/23 05:19:13;;;;;;;3.10;1.80;;;16.30;99.90;;;;;;5109445;28;20244;-33
2022/10/23 05:21:40;;;;;;;6.27;1.60;;;16.30;99.90;;;;;;5109418;28;20623;-33
2022/10/23 05:24:11;;;;;;;3.00;1.70;;;16.30;99.90;;;;;;5109560;28;20668;-33
2022/10/23 05:26:38;;;;;;;2.70;1.40;;;16.30;99.90;;;;;;5125219;27;20194;-33
2022/10/23 05:29:06;;;;;;;3.53;1.37;;;16.30;99.90;;;;;;5109355;28;20657;-33
2022/10/23 05:31:34;;;;;;;4.77;1.80;;;16.30;99.90;;;;;;5109309;28;20545;-33
2022/10/23 05:34:01;;;;;;;3.43;1.57;;;16.40;99.90;;;;;;5109617;28;20208;-33
2022/10/23 05:36:29;;;;;;;2.90;1.50;;;16.40;99.90;;;;;;5109911;28;20237;-33
2022/10/23 05:38:57;;;;;;;3.33;1.80;;;16.40;99.90;;;;;;5109430;28;20198;-33
2022/10/23 05:41:25;;;;;;;1.50;1.20;;;16.40;99.90;;;;;;5109184;28;20222;-33
2022/10/23 05:43:53;;;;;;;2.93;1.50;;;16.40;99.90;;;;;;5109447;28;20202;-33
2022/10/23 05:46:21;;;;;;;4.13;1.50;;;16.40;99.90;;;;;;5124938;27;20701;-33
2022/10/23 05:48:50;;;;;;;2.10;1.53;;;16.50;99.90;;;;;;5109276;28;20623;-34
2022/10/23 05:51:21;;;;;;;3.33;1.43;;;16.50;99.90;;;;;;5109043;28;20202;-33
2022/10/23 05:53:49;;;;;;;4.23;1.60;;;16.50;99.90;;;;;;5109083;28;20202;-33
2022/10/23 05:56:17;;;;;;;4.20;1.63;;;16.50;99.90;;;;;;5107452;28;20221;-34
2022/10/23 05:58:45;;;;;;;3.77;1.50;;;16.50;99.90;;;;;;5109145;28;20209;-34
2022/10/23 06:01:13;;;;;;;4.37;1.50;;;16.50;99.90;;;;;;5109047;28;20222;-33
2022/10/23 06:03:43;;;;;;;2.10;1.50;;;16.50;99.90;;;;;;5109185;28;20212;-34
2022/10/23 06:06:12;;;;;;;3.07;1.70;;;16.50;99.90;;;;;;5108899;28;20202;-33
2022/10/23 06:08:39;;;;;;;3.80;1.40;;;16.50;99.90;;;;;;5108983;28;20191;-33
2022/10/23 06:11:14;;;;;;;3.17;1.67;;;16.50;99.90;;;;;;5107666;28;20198;-33
2022/10/23 06:13:43;;;;;;;4.03;1.50;;;16.50;99.90;;;;;;5109219;28;20217;-33
2022/10/23 06:16:12;;;;;;;5.17;2.30;;;16.50;99.90;;;;;;5108768;28;20194;-33
2022/10/23 06:18:40;;;;;;;4.00;1.47;;;16.50;99.90;;;;;;5108772;28;20205;-33
2022/10/23 06:21:07;;;;;;;4.03;1.97;;;16.50;99.90;;;;;;5109022;28;20238;-33
2022/10/23 06:23:37;;;;;;;2.37;1.43;;;16.50;99.90;;;;;;5108782;28;20194;-34
2022/10/23 06:26:05;;;;;;;6.47;1.77;;;16.50;99.90;;;;;;5108834;28;20202;-33
2022/10/23 06:28:33;;;;;;;3.03;1.73;;;16.50;99.90;;;;;;5107463;28;20246;-33
2022/10/23 06:31:07;;;;;;;4.07;1.57;;;16.50;99.90;;;;;;5108715;28;20246;-34
2022/10/23 06:33:34;;;;;;;3.10;2.07;;;16.50;99.90;;;;;;5108597;28;20487;-33
2022/10/23 06:36:04;;;;;;;4.73;1.77;;;16.50;99.90;;;;;;5108561;28;20206;-33
2022/10/23 06:38:35;;;;;;;2.50;1.60;;;16.50;99.90;;;;;;5108762;28;20194;-33
2022/10/23 06:41:13;;;;;;;3.00;1.50;;;16.50;99.90;;;;;;5124418;28;20246;-33
2022/10/23 06:43:40;;;;;;;3.87;1.80;;;16.50;99.90;;;;;;5108577;28;20194;-33
2022/10/23 06:46:08;;;;;;;6.10;1.93;;;16.50;99.90;;;;;;5109117;28;20235;-33
2022/10/23 06:48:36;;;;;;;2.80;1.67;;;16.50;99.90;;;;;;5108321;28;20558;-33
2022/10/23 06:51:05;;;;;;;3.67;1.90;;;16.50;99.90;;;;;;5107226;28;20197;-33
2022/10/23 06:53:33;;;;;;;3.37;1.70;;;16.50;99.90;;;;;;5108195;28;20202;-33
2022/10/23 06:56:02;;;;;;;3.63;1.70;;;16.50;99.90;;;;;;5123901;28;20207;-33
2022/10/23 06:58:30;;;;;;;3.27;1.70;;;16.50;99.90;;;;;;5108571;28;20237;-32
2022/10/23 07:01:08;;;;;;;2.40;1.90;;;16.50;99.90;;;;;;5108528;28;20263;-33
2022/10/23 07:03:35;;;;;;;2.87;1.87;;;16.50;99.90;;;;;;5108303;28;20186;-33
2022/10/23 07:06:05;;;;;;;2.63;1.50;;;16.50;99.90;;;;;;5124689;27;20625;-33
2022/10/23 07:08:33;;;;;;;2.90;2.00;;;16.60;99.90;;;;;;5112351;28;20210;-33
2022/10/23 07:11:08;;;;;;;4.13;1.60;;;16.60;99.90;;;;;;5111919;28;20217;-33
2022/10/23 07:13:39;;;;;;;1.53;1.43;;;16.60;99.90;;;;;;5111910;28;20194;-33
2022/10/23 07:16:18;;;;;;;2.40;1.43;;;16.60;99.90;;;;;;5111888;28;20202;-33
2022/10/23 07:18:49;;;;;;;3.33;1.60;;;16.70;99.90;;;;;;5111803;28;20190;-33
2022/10/23 07:21:16;;;;;;;2.10;1.67;;;16.70;99.90;;;;;;5111803;28;20634;-33
2022/10/23 07:23:43;;;;;;;2.77;1.80;;;16.70;99.90;;;;;;5111758;28;20538;-33
2022/10/23 07:26:14;;;;;;;3.40;1.60;;;16.70;99.90;;;;;;5110433;28;20206;-34
2022/10/23 07:28:42;;;;;;;2.57;1.67;;;16.80;99.90;;;;;;5110250;28;20294;-33
2022/10/23 07:31:10;;;;;;;2.53;1.90;;;16.80;99.90;;;;;;5111793;28;20285;-33
2022/10/23 07:33:40;;;;;;;4.37;1.93;;;16.80;99.90;;;;;;5111981;28;20288;-33
2022/10/23 07:36:08;;;;;;;4.33;1.97;;;16.80;99.90;;;;;;5111828;28;20195;-34
2022/10/23 07:38:36;;;;;;;3.07;1.60;;;16.90;99.90;;;;;;5111666;28;20225;-34
2022/10/23 07:41:09;;;;;;;4.07;1.67;;;16.90;99.90;;;;;;5111495;28;20271;-33
2022/10/23 07:43:38;;;;;;;6.27;2.13;;;17.00;99.90;;;;;;5111874;28;20645;-34
2022/10/23 07:46:08;;;;;;;5.97;2.10;;;17.00;99.90;;;;;;5112247;28;20202;-34
2022/10/23 07:48:36;;;;;;;2.67;1.57;;;17.00;99.90;;;;;;5127181;27;20202;-33
2022/10/23 07:51:09;;;;;;;4.03;1.70;;;17.00;99.90;;;;;;5109838;28;20641;-33
2022/10/23 07:53:39;;;;;;;3.83;1.87;;;17.10;99.90;;;;;;5111580;28;20194;-34
2022/10/23 07:56:16;;;;;;;3.40;1.47;;;17.20;99.90;;;;;;5111348;28;20202;-33
2022/10/23 07:58:43;;;;;;;4.53;1.97;;;17.20;99.90;;;;;;5111107;28;20206;-34
2022/10/23 08:01:18;;;;;;;3.83;1.90;;;17.20;99.90;;;;;;5111215;28;20229;-33
2022/10/23 08:03:48;;;;;;;3.90;1.83;;;17.30;99.90;;;;;;5110949;28;20213;-34
2022/10/23 08:06:17;;;;;;;3.13;1.40;;;17.30;99.90;;;;;;5126641;27;20244;-33
2022/10/23 08:08:44;;;;;;;3.90;1.73;;;17.40;99.90;;;;;;5110766;28;20210;-34
2022/10/23 08:11:23;;;;;;;4.20;1.87;;;17.40;99.90;;;;;;5126069;27;20190;-34
2022/10/23 08:13:54;;;;;;;3.60;1.77;;;17.40;99.90;;;;;;5110883;28;20297;-34
2022/10/23 08:16:27;;;;;;;3.67;1.57;;;17.50;99.90;;;;;;5109581;28;20629;-34
2022/10/23 08:18:56;;;;;;;4.10;1.77;;;17.50;99.90;;;;;;5110614;28;20590;-33
2022/10/23 08:21:23;;;;;;;4.03;1.57;;;17.50;99.90;;;;;;5110543;27;20305;-34
2022/10/23 08:23:55;;;;;;;3.60;1.83;;;17.60;99.90;;;;;;5110825;28;20597;-34
2022/10/23 08:26:24;;;;;;;3.03;1.80;;;17.60;99.90;;;;;;5110492;28;20202;-33
2022/10/23 08:28:51;;;;;;;5.10;2.00;;;17.60;99.90;;;;;;5109103;28;20469;-33
2022/10/23 08:31:21;;;;;;;2.93;2.10;;;17.60;99.90;;;;;;5110449;28;20237;-34
2022/10/23 08:33:48;;;;;;;3.40;2.00;;;17.70;99.90;;;;;;5110548;28;20581;-33
2022/10/23 08:36:26;;;;;;;2.87;1.87;;;17.70;99.90;;;;;;5110466;28;20578;-33
2022/10/23 08:38:54;;;;;;;3.97;2.07;;;17.80;99.90;;;;;;5126437;27;20690;-34
2022/10/23 08:41:32;;;;;;;4.40;2.00;;;17.80;99.90;;;;;;5110282;28;20787;-34
2022/10/23 08:44:23;;;;;;;3.13;2.00;;;17.80;99.90;;;;;;5110231;28;20571;-34
2022/10/23 08:47:13;;;;;;;3.27;1.90;;;17.80;99.90;;;;;;5110536;28;20198;-34
2022/10/23 08:49:50;;;;;;;7.43;2.20;;;17.90;99.90;;;;;;5108889;28;20687;-33
2022/10/23 08:52:36;;;;;;;7.30;2.00;;;17.90;99.90;;;;;;5110143;28;20313;-34
2022/10/23 08:55:17;;;;;;;3.87;1.90;;;17.90;99.90;;;;;;5108679;28;20202;-34
2022/10/23 08:58:04;;;;;;;4.10;1.73;;;17.90;99.90;;;;;;5108444;28;20201;-34
2022/10/23 09:00:33;;;;;;;3.43;1.73;;;18.00;99.90;;;;;;5108481;28;20194;-34
2022/10/23 09:03:03;;;;;;;2.77;2.00;;;18.00;99.90;;;;;;5109835;28;20240;-34
2022/10/23 09:05:33;;;;;;;3.53;1.83;;;18.00;99.90;;;;;;5091506;28;20186;-33
2022/10/23 09:08:25;;;;;;;4.53;2.00;;;18.00;99.90;;;;;;5108398;28;20182;-33
2022/10/23 09:11:20;;;;;;;2.93;2.07;;;18.00;99.90;;;;;;5109557;28;20704;-34
2022/10/23 09:14:12;;;;;;;3.13;2.17;;;18.10;99.90;;;;;;5109598;28;20209;-33
2022/10/23 09:16:56;;;;;;;2.97;1.93;;;18.10;99.90;;;;;;5109565;28;20647;-33
2022/10/23 09:19:26;;;;;;;4.93;2.00;;;18.10;99.90;;;;;;5109314;28;20671;-34
2022/10/23 09:21:55;;;;;;;2.90;1.77;;;18.10;99.90;;;;;;5109176;28;20529;-34
2022/10/23 09:24:24;;;;;;;3.33;1.93;;;18.20;99.90;;;;;;5108339;28;20680;-33
2022/10/23 09:26:53;;;;;;;3.50;1.80;;;18.20;99.90;;;;;;5109402;28;20694;-33
2022/10/23 09:29:30;;;;;;;4.07;1.93;;;18.20;99.90;;;;;;5108888;28;20236;-33
2022/10/23 09:31:59;;;;;;;5.43;2.07;;;18.30;99.90;;;;;;5109369;28;20194;-34
2022/10/23 09:34:29;;;;;;;4.30;2.13;;;18.30;99.90;;;;;;5107843;28;20291;-33
2022/10/23 09:37:23;;;;;;;4.40;1.70;;;18.30;99.90;;;;;;5108031;28;20206;-34
2022/10/23 09:40:48;;;;;;;2.47;2.00;;;18.30;99.90;;;;;;5109142;28;20206;-33
2022/10/23 09:43:20;;;;;;;2.37;1.80;;;18.40;99.90;;;;;;5045956;28;20207;-33
2022/10/23 09:46:09;;;;;;;2.27;1.60;;;18.40;99.90;;;;;;5046149;28;20212;-33
2022/10/23 09:48:38;;;;;;;6.50;2.30;;;18.40;99.90;;;;;;5088030;28;20202;-33
2022/10/23 09:51:20;;;;;;;3.87;2.00;;;18.40;99.90;;;;;;5109264;28;20686;-33
2022/10/23 09:53:52;;;;;;;3.60;2.03;;;18.50;99.90;;;;;;5109088;28;20210;-34
2022/10/23 09:56:25;;;;;;;4.33;2.03;;;18.60;99.90;;;;;;5108965;28;20672;-33
2022/10/23 09:59:14;;;;;;;3.73;2.20;;;18.60;99.90;;;;;;5108944;28;20194;-34
2022/10/23 10:01:53;;;;;;;2.70;1.83;;;18.70;99.90;;;;;;5108813;28;20213;-33
2022/10/23 10:04:35;;;;;;;5.40;2.07;;;18.70;99.90;;;;;;5107716;28;20206;-34
2022/10/23 10:07:05;;;;;;;5.47;1.90;;;18.80;99.90;;;;;;5108931;28;20193;-34
2022/10/23 10:09:33;;;;;;;4.27;2.00;;;18.90;99.90;;;;;;5109295;28;20519;-33
2022/10/23 10:12:31;;;;;;;5.43;2.40;;;18.90;99.90;;;;;;5108686;28;20691;-34
2022/10/23 10:15:05;;;;;;;4.85;2.15;;;19.00;99.90;;;;;;5107233;28;20205;-33
2022/10/23 10:18:01;;;;;;;5.00;2.53;;;19.10;99.90;;;;;;5108540;28;20209;-34
2022/10/23 10:20:51;;;;;;;6.30;2.60;;;19.20;99.90;;;;;;5108709;28;20244;-33
2022/10/23 10:23:40;;;;;;;6.67;2.73;;;19.20;99.90;;;;;;5106799;28;20672;-33
2022/10/23 10:26:07;;;;;;;3.03;2.10;;;19.30;99.90;;;;;;5108562;28;20239;-33
2022/10/23 10:28:47;;;;;;;8.30;2.80;;;19.30;99.90;;;;;;5108642;28;20243;-34
2022/10/23 10:31:18;;;;;;;3.70;2.40;;;19.50;99.90;;;;;;5108864;28;20198;-33
2022/10/23 10:34:23;;;;;;;3.63;2.30;;;19.50;99.90;;;;;;5108623;28;20198;-34
2022/10/23 10:36:56;;;;;;;3.88;2.15;;;19.60;99.90;;;;;;5108539;28;20316;-34
2022/10/23 10:39:49;;;;;;;4.78;2.10;;;19.60;99.90;;;;;;5108421;28;20202;-33
2022/10/23 10:42:34;;;;;;;4.88;2.33;;;19.70;99.90;;;;;;5111345;28;20210;-33
2022/10/23 10:45:18;;;;;;;3.47;2.22;;;19.80;99.90;;;;;;5112997;28;20694;-33
2022/10/23 10:47:59;;;;;;;3.00;2.00;;;19.90;99.90;;;;;;5112771;28;20178;-32
2022/10/23 10:51:01;;;;;;;5.80;2.30;;;20.00;99.90;;;;;;5112526;28;20209;-33
2022/10/23 10:53:54;;;;;;;3.40;2.40;;;20.00;99.90;;;;;;5112499;28;20209;-33
2022/10/23 10:56:26;;;;;;;2.85;2.00;;;20.10;99.90;;;;;;5112355;28;20290;-33
2022/10/23 10:58:58;;;;;;;4.37;2.00;;;20.10;99.90;;;;;;5112432;28;20559;-33
2022/10/23 11:01:41;;;;;;;6.80;2.20;;;20.20;99.90;;;;;;5112484;28;20214;-33
2022/10/23 11:04:13;;;;;;;5.43;2.50;;;20.30;99.90;;;;;;5112419;28;20219;-33
2022/10/23 11:06:44;;;;;;;6.47;2.17;;;20.30;99.90;;;;;;5111002;28;20228;-32
2022/10/23 11:09:26;;;;;;;4.15;1.80;;;20.30;99.90;;;;;;5112261;28;20807;-32
2022/10/23 11:11:56;;;;;;;4.22;1.95;;;20.40;99.90;;;;;;5112217;28;20198;-32
2022/10/23 11:14:31;;;;;;;2.28;1.98;;;20.40;99.90;;;;;;5112105;28;20289;-33
2022/10/23 11:17:12;;;;;;;4.07;2.17;;;20.50;99.90;;;;;;5112405;28;20210;-33
2022/10/23 11:19:51;;;;;;;5.78;2.22;;;20.50;99.90;;;;;;5111740;28;20294;-33
2022/10/23 11:22:18;;;;;;;3.03;2.17;;;20.50;99.90;;;;;;5111639;28;20214;-33
2022/10/23 11:25:00;;;;;;;3.53;2.05;;;20.60;99.90;;;;;;5111997;28;20199;-33
2022/10/23 11:27:36;;;;;;;8.88;2.70;;;20.60;99.90;;;;;;5111411;28;20212;-33
2022/10/23 11:30:03;;;;;;;5.13;2.30;;;20.60;99.90;;;;;;5111882;28;20182;-34
2022/10/23 11:33:04;;;;;;;3.65;2.15;;;20.70;99.90;;;;;;5111650;28;20688;-34
2022/10/23 11:35:59;;;;;;;3.92;2.35;;;20.70;99.90;;;;;;5111817;28;20293;-34
2022/10/23 11:38:33;;;;;;;3.28;2.17;;;20.80;99.90;;;;;;5111697;28;20206;-34
2022/10/23 11:41:16;;;;;;;5.28;2.60;;;20.80;99.90;;;;;;5111651;28;20747;-34
2022/10/23 11:44:04;;;;;;;4.15;1.98;;;20.90;99.90;;;;;;5111486;28;20199;-34
2022/10/23 11:46:33;;;;;;;3.27;2.47;;;20.90;99.90;;;;;;5111433;28;20185;-34
2022/10/23 11:49:04;;;;;;;3.88;2.50;;;20.90;99.90;;;;;;5111086;28;20209;-34
2022/10/23 11:51:40;;;;;;;4.25;2.20;;;21.00;99.90;;;;;;5109734;28;20578;-34
2022/10/23 11:54:16;;;;;;;6.57;2.60;;;21.00;99.90;;;;;;5111323;28;20414;-34
2022/10/23 11:57:12;;;;;;;7.15;2.13;;;21.10;99.90;;;;;;5111376;28;20204;-33
2022/10/23 11:59:53;;;;;;;4.75;2.20;;;21.10;99.90;;;;;;5110994;28;20586;-33
2022/10/23 12:02:37;;;;;;;3.85;1.90;;;21.20;99.90;;;;;;5111014;28;20217;-33
2022/10/23 12:05:28;;;;;;;3.67;1.95;;;21.20;99.90;;;;;;5111096;28;20557;-34
2022/10/23 12:07:58;;;;;;;4.55;2.03;;;21.30;99.90;;;;;;5111643;28;20259;-34
2022/10/23 12:10:30;;;;;;;5.07;2.30;;;21.30;99.90;;;;;;5111081;28;20456;-34
2022/10/23 12:13:02;;;;;;;5.80;2.38;;;21.40;99.90;;;;;;5109731;28;20194;-34
2022/10/23 12:15:36;;;;;;;5.20;2.17;;;21.40;99.90;;;;;;5110622;28;20249;-34
2022/10/23 12:18:16;;;;;;;3.28;2.20;;;21.50;99.90;;;;;;5110915;28;20240;-34
2022/10/23 12:21:00;;;;;;;4.43;2.10;;;21.50;99.90;;;;;;5110672;28;20240;-33
2022/10/23 12:23:54;;;;;;;3.50;2.15;;;21.50;99.90;;;;;;5110819;28;20274;-34
2022/10/23 12:27:01;;;;;;;5.70;2.20;;;21.60;99.90;;;;;;5110410;28;20204;-34
2022/10/23 12:29:52;;;;;;;4.07;2.45;;;21.60;99.90;;;;;;5110560;28;20205;-33
2022/10/23 12:32:43;;;;;;;6.60;2.15;;;21.70;99.90;;;;;;5110610;28;20198;-33
2022/10/23 12:35:16;;;;;;;3.95;2.10;;;21.70;99.90;;;;;;5110284;28;20210;-33
2022/10/23 12:38:09;;;;;;;3.17;1.90;;;21.70;99.90;;;;;;5110145;28;20201;-34
2022/10/23 12:40:36;;;;;;;6.00;2.05;;;21.80;99.90;;;;;;5110210;28;20199;-34
2022/10/23 12:43:25;;;;;;;3.70;1.63;;;21.80;99.90;;;;;;5110091;28;20222;-34
2022/10/23 12:45:54;;;;;;;5.88;2.30;;;21.90;99.90;;;;;;5110533;28;20198;-33
2022/10/23 12:48:23;;;;;;;4.43;1.80;;;21.90;99.90;;;;;;5110255;28;20199;-33
2022/10/23 12:50:53;;;;;;;5.72;1.90;;;21.90;99.90;;;;;;5110634;28;20243;-34
2022/10/23 12:53:26;;;;;;;2.58;1.83;;;21.90;99.90;;;;;;5110419;28;20563;-34
2022/10/23 12:55:59;;;;;;;2.33;1.73;;;22.00;99.90;;;;;;5108676;28;20333;-34
2022/10/23 12:58:33;;;;;;;4.07;2.08;;;22.00;99.90;;;;;;5108791;28;20182;-33
2022/10/23 13:01:04;;;;;;;3.30;2.10;;;22.00;99.90;;;;;;5109846;28;20250;-34
2022/10/23 13:03:36;;;;;;;4.47;2.17;;;22.10;99.90;;;;;;5109205;28;20206;-34
2022/10/23 13:06:03;;;;;;;3.78;2.22;;;22.10;99.90;;;;;;5108405;28;20379;-33
2022/10/23 13:08:37;;;;;;;3.28;2.13;;;22.10;99.90;;;;;;5109515;28;20329;-34
2022/10/23 13:11:05;;;;;;;3.95;2.33;;;22.20;99.90;;;;;;5109370;28;20198;-33
2022/10/23 13:13:32;;;;;;;3.65;2.05;;;22.20;99.90;;;;;;5109087;28;20202;-33
2022/10/23 13:16:11;;;;;;;6.15;2.70;;;22.30;99.90;;;;;;5109427;28;20224;-33
2022/10/23 13:18:40;;;;;;;4.10;2.60;;;22.30;99.90;;;;;;5109178;28;20252;-34
2022/10/23 13:21:24;;;;;;;2.85;2.03;;;22.40;99.90;;;;;;5109266;28;20250;-34
2022/10/23 13:23:51;;;;;;;4.28;1.90;;;22.40;99.90;;;;;;5109192;28;20546;-34